Airfield :
LOGIN :

Register | Disclaimer

   EN    FR    IT 

 










Legend :    VFR   Marginal VFR   IFR   Intensive IFR   Very Intensive IFR
Visi :
Ceiling :
>= 8 km
>= 3000ft
5 to 8 km
1000 to 3000 ft
1500m to 5 km
500 to 1000 ft
800 to 1500m
200 to 500 ft
< 800m
< 200 ft
Symbols :   Thunderstorms  Fog  Heavy snow  Heavy precipitations  Wind > 20 kt
SIGMETs :     Misc.  Thunderstorms  Icing  Turbulence  Mountain Waves  Volcanic Ashes






- Airport Elevation : 424 ft
- IATA code : QGY


LHPR - Györ Per

CURRENT METAR :
  • 091845Z AUTO 31005KT 1700 -DZ BR FEW001 OVC052 03/03 Q1009

EXPIRED METARs :
  • 091815Z AUTO 29003KT 2400 BR FEW005 BKN054 03/03 Q1009
  • 091745Z AUTO 22003KT 2000 -SHRA BR NSC 03/03 Q1009
  • 091715Z AUTO 19001KT 2200 -DZ BR NSC 03/03 Q1008
  • 091645Z 15003KT 1000 R30/P1500 BR SCT006 SCT057 OVC083 03/03 Q1008
  • 091615Z 00000KT 0900 R30/P1500 FG SCT005 SCT058 OVC083 03/03 Q1008

TAF TAF LHPR
Valid from the 09 at 18:00 until the 10 at 03:00 UTC


091715Z 0918/1003 VRB03KT 0600 FG BKN003
TEMPO 0918/0924 3000 -RA BR SCT005 BKN050 OVC080
PROB40
TEMPO 1000/1003 0350 FG -DZ VV001



MET'MAP, your aeronautical weather chart ! - Copyright ORBIFLY December 2007 - Disclaimer

ORBIFLY MET'MAP TEAM :

Programming & Development : Alexandra Zaïnal
Concept & original design : Baudouin d'Aumeries
Assistance for programming : Marc-Olivier Méhu
Technical & hardware support : Manuel Goepfert

Contact : metmap@orbifly.com




SOURCES & CREDITS :

   NOAA